Time;durP1;ratioP1;P1;durP2;ratioP2;P2;SDS_P1;SDS_P2;PMS_P1;PMS_P2;Temp;Humidity;BMP_temperature;BMP_pressure;BME280_temperature;BME280_humidity;BME280_pressure;Samples;Min_cycle;Max_cycle;Signal;HPM_P1;HPM_P2
2021/08/15 01:15:54;;;;;;;;;;;;;22.20;101604.00;;;;2106069;28;1535;-63
2021/08/15 01:16:54;;;;;;;;;;;;;18.80;101600.00;;;;2105725;28;879;-63
2021/08/15 01:17:55;;;;;;;;;;;;;17.30;101608.00;;;;2113732;28;940;-63
2021/08/15 01:18:55;;;;;;;;;;;;;16.60;101607.00;;;;2102695;28;1231;-63
2021/08/15 01:19:55;;;;;;;;;;;;;16.30;101608.00;;;;2088495;28;2004;-65
2021/08/15 01:21:02;;;;;;;;;;;;;16.30;101608.00;;;;2096313;28;1032;-65
2021/08/15 01:22:02;;;;;;;;;;;;;16.20;101614.00;;;;2097057;28;1227;-63
2021/08/15 01:23:02;;;;;;;;;;;;;16.00;101615.00;;;;2096938;28;995;-60
2021/08/15 01:24:04;;;;;;;;;;;;;16.10;101613.00;;;;2097183;28;884;-63
2021/08/15 01:25:05;;;;;;;;;;;;;16.10;101614.00;;;;2096927;28;880;-62
2021/08/15 01:26:06;;;;;;;;;;;;;16.20;101609.00;;;;2097008;28;835;-63
2021/08/15 01:27:06;;;;;;;;;;;;;16.20;101616.00;;;;2097251;28;1010;-66
2021/08/15 01:28:12;;;;;;;;;;;;;15.90;101621.00;;;;2097135;28;920;-63
2021/08/15 01:29:12;;;;;;;;;;;;;16.00;101619.00;;;;2097387;28;1329;-64
2021/08/15 01:30:13;;;;;;;;;;;;;16.00;101608.00;;;;2096991;28;1141;-63
2021/08/15 01:31:13;;;;;;;;;;;;;16.00;101618.00;;;;2088446;28;1345;-61
2021/08/15 01:32:15;;;;;;;;;;;;;15.80;101616.00;;;;2088727;28;784;-62
2021/08/15 01:33:25;;;;;;;;;;;;;15.70;101619.00;;;;2097872;28;999;-63
2021/08/15 01:34:25;;;;;;;;;;;;;15.60;101606.00;;;;2097191;28;805;-62
2021/08/15 01:35:25;;;;;;;;;;;;;15.70;101613.00;;;;2097195;28;1914;-63
2021/08/15 01:36:25;;;;;;;;;;;;;15.60;101605.00;;;;2096582;28;759;-62
2021/08/15 01:37:26;;;;;;;;;;;;;15.80;101609.00;;;;2091111;28;2116;-62
2021/08/15 01:38:27;;;;;;;;;;;;;15.90;101608.00;;;;2096900;28;958;-62
2021/08/15 01:39:27;;;;;;;;;;;;;16.00;101606.00;;;;2088900;28;1212;-61
2021/08/15 01:40:27;;;;;;;;;;;;;15.80;101609.00;;;;2091216;28;2147;-64
2021/08/15 01:41:27;;;;;;;;;;;;;15.70;101606.00;;;;2104751;28;793;-62
2021/08/15 01:42:28;;;;;;;;;;;;;15.80;101608.00;;;;2097414;28;756;-61
2021/08/15 01:43:28;;;;;;;;;;;;;15.70;101608.00;;;;2097276;28;951;-64
2021/08/15 01:44:29;;;;;;;;;;;;;15.40;101613.00;;;;2096961;28;2061;-62
2021/08/15 01:45:29;;;;;;;;;;;;;15.40;101604.00;;;;2097163;28;904;-62
2021/08/15 01:46:30;;;;;;;;;;;;;15.30;101608.00;;;;2096920;28;917;-62
2021/08/15 01:47:30;;;;;;;;;;;;;15.50;101606.00;;;;2088694;28;1302;-61
2021/08/15 01:48:30;;;;;;;;;;;;;15.60;101600.00;;;;2088663;28;782;-63
2021/08/15 01:49:30;;;;;;;;;;;;;15.40;101605.00;;;;2097298;28;1199;-63
2021/08/15 01:50:31;;;;;;;;;;;;;15.40;101603.00;;;;2095942;28;9701;-64
2021/08/15 01:51:31;;;;;;;;;;;;;15.60;101600.00;;;;2097204;28;1128;-61
2021/08/15 01:52:32;;;;;;;;;;;;;15.40;101607.00;;;;2096891;28;875;-61
2021/08/15 01:53:32;;;;;;;;;;;;;15.30;101602.00;;;;2105103;28;877;-61
2021/08/15 01:54:32;;;;;;;;;;;;;15.50;101603.00;;;;2105351;28;1074;-61
2021/08/15 01:55:32;;;;;;;;;;;;;15.40;101603.00;;;;2097680;28;1985;-61
2021/08/15 01:56:32;;;;;;;;;;;;;15.40;101604.00;;;;2105257;28;824;-62
2021/08/15 01:57:33;;;;;;;;;;;;;15.50;101605.00;;;;2105551;28;801;-61
2021/08/15 01:58:33;;;;;;;;;;;;;15.40;101603.00;;;;2097593;28;776;-63
2021/08/15 01:59:33;;;;;;;;;;;;;15.40;101597.00;;;;2105129;28;1211;-63
2021/08/15 02:00:34;;;;;;;;;;;;;15.40;101607.00;;;;2105237;28;792;-60
2021/08/15 02:01:34;;;;;;;;;;;;;15.20;101601.00;;;;2096660;28;1002;-60
2021/08/15 02:02:34;;;;;;;;;;;;;15.30;101596.00;;;;2096998;28;962;-61
2021/08/15 02:03:36;;;;;;;;;;;;;15.50;101604.00;;;;2105037;28;1308;-62
2021/08/15 02:04:37;;;;;;;;;;;;;15.20;101603.00;;;;2105042;28;1189;-59
2021/08/15 02:05:38;;;;;;;;;;;;;15.10;101596.00;;;;2097533;28;832;-61
2021/08/15 02:06:38;;;;;;;;;;;;;15.00;101604.00;;;;2105547;28;1222;-61
2021/08/15 02:07:38;;;;;;;;;;;;;15.30;101601.00;;;;2104995;28;978;-61
2021/08/15 02:08:38;;;;;;;;;;;;;15.10;101607.00;;;;2097484;28;939;-60
2021/08/15 02:09:38;;;;;;;;;;;;;15.00;101604.00;;;;2104977;28;1195;-60
2021/08/15 02:10:39;;;;;;;;;;;;;15.10;101592.00;;;;2105044;28;888;-62
2021/08/15 02:11:39;;;;;;;;;;;;;14.90;101603.00;;;;2096361;28;829;-61
2021/08/15 02:12:39;;;;;;;;;;;;;15.00;101596.00;;;;2096966;28;813;-62
2021/08/15 02:13:40;;;;;;;;;;;;;15.00;101600.00;;;;2097338;28;844;-60
2021/08/15 02:14:40;;;;;;;;;;;;;15.00;101590.00;;;;2105346;28;836;-61
2021/08/15 02:15:40;;;;;;;;;;;;;15.10;101595.00;;;;2104750;28;1887;-62
2021/08/15 02:16:41;;;;;;;;;;;;;15.00;101588.00;;;;2096777;28;880;-61
2021/08/15 02:17:41;;;;;;;;;;;;;14.90;101594.00;;;;2096698;28;931;-61
2021/08/15 02:18:41;;;;;;;;;;;;;14.90;101587.00;;;;2113649;28;1235;-61
2021/08/15 02:19:41;;;;;;;;;;;;;14.70;101603.00;;;;2105016;28;800;-63
2021/08/15 02:20:41;;;;;;;;;;;;;14.50;101599.00;;;;2088654;28;872;-61
2021/08/15 02:21:42;;;;;;;;;;;;;14.30;101599.00;;;;2095930;28;959;-63
2021/08/15 02:22:42;;;;;;;;;;;;;14.20;101598.00;;;;2105122;28;800;-62
2021/08/15 02:23:42;;;;;;;;;;;;;14.30;101596.00;;;;2088348;28;1232;-60
2021/08/15 02:24:42;;;;;;;;;;;;;14.40;101605.00;;;;2088533;28;811;-60
2021/08/15 02:25:42;;;;;;;;;;;;;14.30;101605.00;;;;2104885;28;1062;-60
2021/08/15 02:26:43;;;;;;;;;;;;;14.50;101598.00;;;;2094335;28;943;-61
2021/08/15 02:27:43;;;;;;;;;;;;;14.60;101599.00;;;;2090745;28;888;-62
2021/08/15 02:28:43;;;;;;;;;;;;;14.70;101604.00;;;;2091213;28;1198;-62
2021/08/15 02:29:44;;;;;;;;;;;;;14.50;101594.00;;;;2073406;28;2603;-63
2021/08/15 02:30:44;;;;;;;;;;;;;14.60;101595.00;;;;2082841;28;1005;-62
2021/08/15 02:31:44;;;;;;;;;;;;;14.40;101594.00;;;;2090489;28;1354;-61
2021/08/15 02:32:44;;;;;;;;;;;;;14.20;101596.00;;;;2074463;28;1230;-61
2021/08/15 02:33:44;;;;;;;;;;;;;14.20;101602.00;;;;2074728;28;1007;-59
2021/08/15 02:34:44;;;;;;;;;;;;;14.20;101597.00;;;;2082556;28;929;-63
2021/08/15 02:35:45;;;;;;;;;;;;;14.30;101590.00;;;;2090874;28;1910;-60
2021/08/15 02:36:45;;;;;;;;;;;;;14.20;101597.00;;;;2090987;28;1023;-63
2021/08/15 02:37:47;;;;;;;;;;;;;14.10;101588.00;;;;2082840;28;889;-60
2021/08/15 02:38:47;;;;;;;;;;;;;14.20;101590.00;;;;2082491;28;1171;-62
2021/08/15 02:39:47;;;;;;;;;;;;;14.20;101585.00;;;;2082829;28;896;-63
2021/08/15 02:40:47;;;;;;;;;;;;;14.20;101575.00;;;;2082606;28;957;-62
2021/08/15 02:41:47;;;;;;;;;;;;;14.10;101591.00;;;;2082568;28;687;-61
2021/08/15 02:42:48;;;;;;;;;;;;;14.10;101593.00;;;;2091544;28;1003;-63
2021/08/15 02:43:48;;;;;;;;;;;;;13.90;101586.00;;;;2090957;28;1023;-61
2021/08/15 02:44:48;;;;;;;;;;;;;14.00;101589.00;;;;2091147;28;829;-62
2021/08/15 02:45:49;;;;;;;;;;;;;13.90;101585.00;;;;2091566;28;843;-61
2021/08/15 02:46:49;;;;;;;;;;;;;13.80;101588.00;;;;2091047;28;790;-60
2021/08/15 02:47:49;;;;;;;;;;;;;13.80;101586.00;;;;2091098;28;939;-61
2021/08/15 02:48:49;;;;;;;;;;;;;13.70;101580.00;;;;2090754;28;1215;-61
2021/08/15 02:49:49;;;;;;;;;;;;;13.60;101588.00;;;;2090658;28;789;-60
2021/08/15 02:50:49;;;;;;;;;;;;;13.90;101582.00;;;;2091574;28;726;-61
2021/08/15 02:51:50;;;;;;;;;;;;;14.00;101589.00;;;;2090364;28;1263;-62
2021/08/15 02:52:50;;;;;;;;;;;;;14.10;101588.00;;;;2083190;28;1082;-62
2021/08/15 02:53:51;;;;;;;;;;;;;14.10;101583.00;;;;2091107;28;805;-62
2021/08/15 02:54:51;;;;;;;;;;;;;14.00;101576.00;;;;2090909;28;899;-58
2021/08/15 02:55:51;;;;;;;;;;;;;14.10;101583.00;;;;2090802;28;1945;-60
2021/08/15 02:56:52;;;;;;;;;;;;;14.10;101582.00;;;;2090885;28;777;-61
2021/08/15 02:57:52;;;;;;;;;;;;;14.10;101577.00;;;;2099208;28;970;-61
2021/08/15 02:58:52;;;;;;;;;;;;;14.10;101579.00;;;;2090520;28;1234;-60
2021/08/15 02:59:52;;;;;;;;;;;;;14.30;101582.00;;;;2074050;28;3700;-62
2021/08/15 03:00:54;;;;;;;;;;;;;14.40;101573.00;;;;2086420;28;9576;-60
2021/08/15 03:01:54;;;;;;;;;;;;;14.30;101573.00;;;;2087790;28;1325;-61
2021/08/15 03:02:54;;;;;;;;;;;;;14.20;101568.00;;;;2082637;28;1525;-62
2021/08/15 03:03:54;;;;;;;;;;;;;14.30;101582.00;;;;2074005;28;833;-61
2021/08/15 03:04:54;;;;;;;;;;;;;14.50;101573.00;;;;2074481;28;663;-62
2021/08/15 03:05:55;;;;;;;;;;;;;14.50;101564.00;;;;2074221;28;968;-61
2021/08/15 03:06:55;;;;;;;;;;;;;14.40;101566.00;;;;2082350;28;885;-62
2021/08/15 03:07:55;;;;;;;;;;;;;14.30;101564.00;;;;2082469;28;790;-59
2021/08/15 03:08:55;;;;;;;;;;;;;14.50;101562.00;;;;2082605;28;1322;-62
2021/08/15 03:09:55;;;;;;;;;;;;;14.30;101569.00;;;;2082450;28;976;-58
2021/08/15 03:10:56;;;;;;;;;;;;;14.40;101566.00;;;;2074067;28;921;-59
2021/08/15 03:11:56;;;;;;;;;;;;;14.10;101558.00;;;;2081906;28;836;-61
2021/08/15 03:12:56;;;;;;;;;;;;;14.00;101568.00;;;;2074220;28;1007;-61
2021/08/15 03:13:56;;;;;;;;;;;;;13.90;101558.00;;;;2082360;28;824;-61
2021/08/15 03:14:56;;;;;;;;;;;;;13.90;101559.00;;;;2083050;28;1899;-59
2021/08/15 03:15:57;;;;;;;;;;;;;13.90;101556.00;;;;2082974;28;947;-61
2021/08/15 03:16:57;;;;;;;;;;;;;13.80;101556.00;;;;2083140;28;797;-61
2021/08/15 03:17:57;;;;;;;;;;;;;13.70;101558.00;;;;2082917;28;729;-62
2021/08/15 03:18:57;;;;;;;;;;;;;13.80;101554.00;;;;2082899;28;1217;-61
2021/08/15 03:19:57;;;;;;;;;;;;;13.70;101553.00;;;;2083001;28;849;-61
2021/08/15 03:20:58;;;;;;;;;;;;;13.60;101552.00;;;;2074027;28;971;-57
2021/08/15 03:21:58;;;;;;;;;;;;;13.70;101557.00;;;;2065964;28;845;-60
2021/08/15 03:22:59;;;;;;;;;;;;;13.80;101546.00;;;;2074347;28;723;-59
2021/08/15 03:23:59;;;;;;;;;;;;;13.90;101552.00;;;;2082398;28;936;-60
2021/08/15 03:24:59;;;;;;;;;;;;;13.90;101550.00;;;;2082262;28;893;-63
2021/08/15 03:25:59;;;;;;;;;;;;;14.10;101549.00;;;;2082327;28;875;-60
2021/08/15 03:26:59;;;;;;;;;;;;;13.90;101544.00;;;;2082623;28;782;-62
2021/08/15 03:28:00;;;;;;;;;;;;;13.90;101549.00;;;;2074358;28;794;-61
2021/08/15 03:29:00;;;;;;;;;;;;;13.90;101542.00;;;;2082258;28;1290;-62
2021/08/15 03:30:00;;;;;;;;;;;;;13.90;101557.00;;;;2082078;28;925;-58
2021/08/15 03:31:00;;;;;;;;;;;;;14.00;101551.00;;;;2081971;28;999;-58
2021/08/15 03:32:00;;;;;;;;;;;;;13.90;101546.00;;;;2082909;28;931;-60
2021/08/15 03:33:01;;;;;;;;;;;;;13.90;101552.00;;;;2082951;28;845;-61
2021/08/15 03:34:01;;;;;;;;;;;;;13.80;101549.00;;;;2083004;28;849;-61
2021/08/15 03:35:01;;;;;;;;;;;;;13.90;101552.00;;;;2082374;28;1983;-61
2021/08/15 03:36:01;;;;;;;;;;;;;14.00;101548.00;;;;2074388;28;644;-61
2021/08/15 03:37:02;;;;;;;;;;;;;14.00;101546.00;;;;2082499;28;802;-63
2021/08/15 03:38:02;;;;;;;;;;;;;13.80;101536.00;;;;2074464;28;825;-62
2021/08/15 03:39:02;;;;;;;;;;;;;13.70;101545.00;;;;2081447;28;1332;-62
2021/08/15 03:40:03;;;;;;;;;;;;;13.90;101530.00;;;;2082536;28;1023;-60
2021/08/15 03:41:03;;;;;;;;;;;;;13.70;101550.00;;;;2073715;28;834;-59
2021/08/15 03:42:04;;;;;;;;;;;;;13.90;101543.00;;;;2082498;28;892;-62
2021/08/15 03:43:04;;;;;;;;;;;;;14.00;101539.00;;;;2083050;28;836;-62
2021/08/15 03:44:04;;;;;;;;;;;;;14.10;101546.00;;;;2082439;28;688;-61
2021/08/15 03:45:05;;;;;;;;;;;;;14.00;101534.00;;;;2082367;28;904;-63
2021/08/15 03:46:05;;;;;;;;;;;;;14.20;101544.00;;;;2082228;28;793;-59
2021/08/15 03:47:05;;;;;;;;;;;;;14.10;101547.00;;;;2073587;28;923;-60
2021/08/15 03:48:06;;;;;;;;;;;;;14.10;101541.00;;;;2082270;28;841;-59
2021/08/15 03:49:06;;;;;;;;;;;;;13.90;101541.00;;;;2082661;28;1209;-61
2021/08/15 03:50:06;;;;;;;;;;;;;13.80;101535.00;;;;2082178;28;884;-63
2021/08/15 03:51:06;;;;;;;;;;;;;13.90;101547.00;;;;2073186;28;820;-62
2021/08/15 03:52:07;;;;;;;;;;;;;13.90;101549.00;;;;2082040;28;867;-62
2021/08/15 03:53:07;;;;;;;;;;;;;13.90;101546.00;;;;2082522;28;806;-58
2021/08/15 03:54:07;;;;;;;;;;;;;13.90;101541.00;;;;2082219;28;696;-58
2021/08/15 03:55:10;;;;;;;;;;;;;13.80;101551.00;;;;2081970;28;1906;-58
2021/08/15 03:56:11;;;;;;;;;;;;;13.90;101544.00;;;;2082334;28;902;-63
2021/08/15 03:57:11;;;;;;;;;;;;;13.80;101548.00;;;;2082376;28;857;-62
2021/08/15 03:58:11;;;;;;;;;;;;;13.90;101551.00;;;;2082201;28;801;-60
2021/08/15 03:59:11;;;;;;;;;;;;;13.90;101552.00;;;;2082355;28;1262;-58
2021/08/15 04:00:12;;;;;;;;;;;;;13.90;101552.00;;;;2082751;28;902;-59
2021/08/15 04:01:12;;;;;;;;;;;;;13.80;101551.00;;;;2081954;28;856;-61
2021/08/15 04:02:12;;;;;;;;;;;;;13.80;101560.00;;;;2082330;28;875;-61
2021/08/15 04:03:13;;;;;;;;;;;;;13.90;101549.00;;;;2082307;28;947;-61
2021/08/15 04:04:14;;;;;;;;;;;;;13.70;101548.00;;;;2082049;28;805;-59
2021/08/15 04:05:14;;;;;;;;;;;;;13.70;101548.00;;;;2083166;28;1019;-59
2021/08/15 04:06:21;;;;;;;;;;;;;13.70;101536.00;;;;2082697;28;813;-61
2021/08/15 04:07:21;;;;;;;;;;;;;13.70;101549.00;;;;2082583;28;591;-62
2021/08/15 04:08:21;;;;;;;;;;;;;13.80;101549.00;;;;2074554;28;987;-61
2021/08/15 04:09:22;;;;;;;;;;;;;13.70;101546.00;;;;2081630;28;1212;-58
2021/08/15 04:10:22;;;;;;;;;;;;;13.70;101539.00;;;;2082449;28;888;-59
2021/08/15 04:11:22;;;;;;;;;;;;;13.60;101541.00;;;;2081442;28;837;-59
2021/08/15 04:12:22;;;;;;;;;;;;;13.60;101544.00;;;;2082070;28;839;-62
2021/08/15 04:13:22;;;;;;;;;;;;;13.80;101558.00;;;;2082620;28;1026;-62
2021/08/15 04:14:22;;;;;;;;;;;;;13.80;101546.00;;;;2082426;28;936;-61
2021/08/15 04:15:23;;;;;;;;;;;;;13.80;101542.00;;;;2082244;28;1910;-62
2021/08/15 04:16:23;;;;;;;;;;;;;13.90;101545.00;;;;2081745;28;995;-62
2021/08/15 04:17:23;;;;;;;;;;;;;13.80;101540.00;;;;2082047;28;838;-61
2021/08/15 04:18:23;;;;;;;;;;;;;13.80;101549.00;;;;2082456;28;762;-63
2021/08/15 04:19:23;;;;;;;;;;;;;13.90;101548.00;;;;2081877;28;1314;-62
2021/08/15 04:20:24;;;;;;;;;;;;;13.90;101550.00;;;;2073232;28;868;-62
2021/08/15 04:21:24;;;;;;;;;;;;;13.90;101544.00;;;;2073300;28;984;-59
2021/08/15 04:22:24;;;;;;;;;;;;;13.90;101540.00;;;;2065376;28;854;-59
2021/08/15 04:23:26;;;;;;;;;;;;;14.00;101547.00;;;;2065787;28;864;-59
2021/08/15 04:24:26;;;;;;;;;;;;;14.00;101549.00;;;;2081828;28;1252;-60
2021/08/15 04:25:26;;;;;;;;;;;;;13.90;101551.00;;;;2082562;28;695;-60
2021/08/15 04:26:27;;;;;;;;;;;;;13.90;101545.00;;;;2082231;28;854;-61
2021/08/15 04:27:27;;;;;;;;;;;;;13.90;101548.00;;;;2082581;28;1007;-59
2021/08/15 04:28:27;;;;;;;;;;;;;13.90;101546.00;;;;2082245;28;889;-62
2021/08/15 04:29:27;;;;;;;;;;;;;14.00;101549.00;;;;2082370;28;1283;-61
2021/08/15 04:30:27;;;;;;;;;;;;;13.90;101553.00;;;;2082434;28;757;-59
2021/08/15 04:31:28;;;;;;;;;;;;;14.00;101556.00;;;;2081665;28;837;-62
2021/08/15 04:32:28;;;;;;;;;;;;;14.10;101559.00;;;;2082458;28;797;-60
2021/08/15 04:33:28;;;;;;;;;;;;;14.10;101548.00;;;;2082286;28;972;-61
2021/08/15 04:34:28;;;;;;;;;;;;;14.20;101559.00;;;;2081873;28;810;-60
2021/08/15 04:35:29;;;;;;;;;;;;;14.30;101553.00;;;;2081789;28;1907;-57
2021/08/15 04:36:29;;;;;;;;;;;;;14.30;101557.00;;;;2082302;28;809;-59
2021/08/15 04:37:30;;;;;;;;;;;;;14.30;101548.00;;;;2082154;28;940;-61
2021/08/15 04:38:30;;;;;;;;;;;;;14.40;101548.00;;;;2082454;28;892;-62
2021/08/15 04:39:30;;;;;;;;;;;;;14.50;101547.00;;;;2082293;28;1193;-61
2021/08/15 04:40:30;;;;;;;;;;;;;14.60;101544.00;;;;2081731;28;924;-62
2021/08/15 04:41:30;;;;;;;;;;;;;14.70;101547.00;;;;2073021;28;913;-58
2021/08/15 04:42:31;;;;;;;;;;;;;14.70;101536.00;;;;2073401;28;947;-58
2021/08/15 04:43:32;;;;;;;;;;;;;14.70;101539.00;;;;2081613;28;782;-60
2021/08/15 04:44:32;;;;;;;;;;;;;14.70;101538.00;;;;2081763;28;805;-59
2021/08/15 04:45:32;;;;;;;;;;;;;14.60;101531.00;;;;2081625;28;1421;-59
2021/08/15 04:46:33;;;;;;;;;;;;;14.70;101527.00;;;;2081962;28;823;-58
2021/08/15 04:47:33;;;;;;;;;;;;;14.80;101544.00;;;;2081964;28;903;-60
2021/08/15 04:48:33;;;;;;;;;;;;;14.80;101539.00;;;;2082357;28;876;-60
2021/08/15 04:49:33;;;;;;;;;;;;;15.00;101547.00;;;;2082103;28;1197;-62
2021/08/15 04:50:33;;;;;;;;;;;;;15.10;101534.00;;;;2082187;28;734;-62
2021/08/15 04:51:34;;;;;;;;;;;;;15.20;101542.00;;;;2081797;28;786;-62
2021/08/15 04:52:34;;;;;;;;;;;;;15.20;101540.00;;;;2082434;28;880;-60
2021/08/15 04:53:34;;;;;;;;;;;;;15.10;101535.00;;;;2082021;28;888;-62
2021/08/15 04:54:34;;;;;;;;;;;;;15.20;101538.00;;;;2093866;28;1202;-62
2021/08/15 04:55:35;;;;;;;;;;;;;15.10;101537.00;;;;2097873;28;1973;-61
2021/08/15 04:56:35;;;;;;;;;;;;;15.10;101539.00;;;;2098232;28;955;-59
2021/08/15 04:57:35;;;;;;;;;;;;;15.10;101542.00;;;;2098235;28;824;-58
2021/08/15 04:58:37;;;;;;;;;;;;;15.30;101536.00;;;;2098415;28;1390;-59
2021/08/15 04:59:37;;;;;;;;;;;;;15.40;101542.00;;;;2098669;28;1265;-61
2021/08/15 05:00:37;;;;;;;;;;;;;15.30;101541.00;;;;2106278;28;931;-59
2021/08/15 05:01:37;;;;;;;;;;;;;15.40;101532.00;;;;2106101;28;978;-58
2021/08/15 05:02:37;;;;;;;;;;;;;15.30;101517.00;;;;2097943;28;896;-59
2021/08/15 05:03:37;;;;;;;;;;;;;15.30;101526.00;;;;2098318;28;804;-60
2021/08/15 05:04:38;;;;;;;;;;;;;15.40;101536.00;;;;2089431;28;805;-59
2021/08/15 05:05:39;;;;;;;;;;;;;15.50;101529.00;;;;2090073;28;964;-61
2021/08/15 05:06:39;;;;;;;;;;;;;15.50;101523.00;;;;2098408;28;840;-61
2021/08/15 05:07:39;;;;;;;;;;;;;15.70;101514.00;;;;2098957;28;797;-58
2021/08/15 05:08:39;;;;;;;;;;;;;15.70;101521.00;;;;2098611;28;745;-59
2021/08/15 05:09:40;;;;;;;;;;;;;15.70;101517.00;;;;2098609;28;1165;-61
2021/08/15 05:10:40;;;;;;;;;;;;;15.80;101523.00;;;;2098375;28;1107;-61
2021/08/15 05:11:40;;;;;;;;;;;;;16.00;101524.00;;;;2097762;28;998;-62
2021/08/15 05:12:41;;;;;;;;;;;;;16.00;101515.00;;;;2097997;28;846;-62
2021/08/15 05:13:41;;;;;;;;;;;;;16.00;101522.00;;;;2098034;28;1511;-65
2021/08/15 05:14:41;;;;;;;;;;;;;16.00;101512.00;;;;2097969;28;873;-65
2021/08/15 05:15:41;;;;;;;;;;;;;16.20;101523.00;;;;2098460;28;1914;-64
2021/08/15 05:16:42;;;;;;;;;;;;;16.30;101511.00;;;;2098520;28;856;-64
2021/08/15 05:17:42;;;;;;;;;;;;;16.30;101500.00;;;;2098793;28;812;-62
2021/08/15 05:18:42;;;;;;;;;;;;;17.20;101435.00;;;;2098396;28;1201;-62
2021/08/15 05:19:42;;;;;;;;;;;;;18.80;101399.00;;;;2098613;28;1066;-63
2021/08/15 05:20:42;;;;;;;;;;;;;19.90;101394.00;;;;2089559;28;935;-63
2021/08/15 05:21:42;;;;;;;;;;;;;20.10;101394.00;;;;2089150;28;828;-62
2021/08/15 05:22:43;;;;;;;;;;;;;20.50;101401.00;;;;2098500;28;879;-61
2021/08/15 05:23:43;;;;;;;;;;;;;20.30;101402.00;;;;2106551;28;832;-63
2021/08/15 05:24:43;;;;;;;;;;;;;20.60;101402.00;;;;2106413;28;864;-64
2021/08/15 05:25:43;;;;;;;;;;;;;21.00;101397.00;;;;2097973;28;864;-65
2021/08/15 05:26:43;;;;;;;;;;;;;21.30;101402.00;;;;2098048;28;802;-63
2021/08/15 05:27:44;;;;;;;;;;;;;22.00;101403.00;;;;2098438;28;769;-62
2021/08/15 05:28:44;;;;;;;;;;;;;22.10;101389.00;;;;2098835;28;1212;-63
2021/08/15 05:29:44;;;;;;;;;;;;;22.30;101403.00;;;;2097847;28;844;-62
2021/08/15 05:30:44;;;;;;;;;;;;;22.30;101423.00;;;;2098080;28;647;-62
2021/08/15 05:31:44;;;;;;;;;;;;;21.60;101398.00;;;;2097452;28;946;-62
2021/08/15 05:32:45;;;;;;;;;;;;;22.50;101383.00;;;;2097935;28;943;-61
2021/08/15 05:33:45;;;;;;;;;;;;;22.60;101389.00;;;;2097682;28;848;-62
2021/08/15 05:34:45;;;;;;;;;;;;;22.70;101394.00;;;;2089873;28;793;-64
2021/08/15 05:35:45;;;;;;;;;;;;;23.50;101400.00;;;;2081172;28;1981;-64
2021/08/15 05:36:45;;;;;;;;;;;;;23.20;101398.00;;;;2089695;28;896;-63
2021/08/15 05:37:46;;;;;;;;;;;;;22.30;101422.00;;;;2097675;28;769;-64
2021/08/15 05:38:46;;;;;;;;;;;;;22.70;101405.00;;;;2097772;28;1192;-63
2021/08/15 05:39:46;;;;;;;;;;;;;23.90;101401.00;;;;2089778;28;805;-63
2021/08/15 05:40:46;;;;;;;;;;;;;24.00;101409.00;;;;2097979;28;920;-63
2021/08/15 05:41:46;;;;;;;;;;;;;24.00;101415.00;;;;2097977;28;908;-61
2021/08/15 05:42:47;;;;;;;;;;;;;23.70;101408.00;;;;2098725;28;789;-62
2021/08/15 05:43:47;;;;;;;;;;;;;23.70;101419.00;;;;2098443;28;817;-61
2021/08/15 05:44:48;;;;;;;;;;;;;23.50;101408.00;;;;2098525;28;761;-63
2021/08/15 05:45:48;;;;;;;;;;;;;23.20;101434.00;;;;2097891;28;828;-64
2021/08/15 05:46:48;;;;;;;;;;;;;23.10;101426.00;;;;2081611;28;817;-63
2021/08/15 05:47:48;;;;;;;;;;;;;23.20;101412.00;;;;2081373;28;813;-64
2021/08/15 05:48:48;;;;;;;;;;;;;24.30;101429.00;;;;2081279;28;1213;-62
2021/08/15 05:49:49;;;;;;;;;;;;;24.20;101395.00;;;;2081183;28;868;-62
2021/08/15 05:50:49;;;;;;;;;;;;;24.60;101388.00;;;;2097936;28;837;-61
2021/08/15 05:51:49;;;;;;;;;;;;;25.40;101400.00;;;;2097322;28;803;-62
2021/08/15 05:52:49;;;;;;;;;;;;;24.90;101398.00;;;;2097997;28;764;-62
2021/08/15 05:53:49;;;;;;;;;;;;;24.30;101402.00;;;;2097932;28;1014;-63
2021/08/15 05:54:50;;;;;;;;;;;;;25.30;101397.00;;;;2089522;28;855;-63
2021/08/15 05:55:50;;;;;;;;;;;;;25.60;101391.00;;;;2089578;28;1894;-63
2021/08/15 05:56:50;;;;;;;;;;;;;25.40;101400.00;;;;2089563;28;923;-63
2021/08/15 05:57:50;;;;;;;;;;;;;25.90;101416.00;;;;2097919;28;792;-64
2021/08/15 05:58:51;;;;;;;;;;;;;26.10;101400.00;;;;2097759;28;1191;-63
2021/08/15 05:59:51;;;;;;;;;;;;;25.30;101409.00;;;;2089054;28;1535;-63
2021/08/15 06:00:51;;;;;;;;;;;;;26.10;101414.00;;;;2097552;28;1904;-63
2021/08/15 06:01:52;;;;;;;;;;;;;26.70;101431.00;;;;2089708;28;1478;-61
2021/08/15 06:02:52;;;;;;;;;;;;;25.90;101436.00;;;;2107652;28;895;-64
2021/08/15 06:03:52;;;;;;;;;;;;;25.40;101416.00;;;;2099447;28;840;-63
2021/08/15 06:04:53;;;;;;;;;;;;;26.30;101422.00;;;;2091184;28;823;-63
2021/08/15 06:05:53;;;;;;;;;;;;;26.50;101440.00;;;;2107696;28;1037;-64
2021/08/15 06:06:53;;;;;;;;;;;;;25.80;101442.00;;;;2107327;28;2507;-63
2021/08/15 06:07:53;;;;;;;;;;;;;25.60;101399.00;;;;2091666;28;1810;-63
2021/08/15 06:08:53;;;;;;;;;;;;;25.90;101419.00;;;;2105764;28;1864;-62
2021/08/15 06:09:54;;;;;;;;;;;;;26.40;101409.00;;;;2099359;28;1014;-63
2021/08/15 06:10:54;;;;;;;;;;;;;26.90;101444.00;;;;2082800;28;884;-63
2021/08/15 06:11:54;;;;;;;;;;;;;26.40;101447.00;;;;2090780;28;789;-64
2021/08/15 06:12:54;;;;;;;;;;;;;25.70;101477.00;;;;2090448;28;1835;-62
2021/08/15 06:13:57;;;;;;;;;;;;;25.80;101455.00;;;;2074852;28;955;-63
2021/08/15 06:14:57;;;;;;;;;;;;;24.90;101476.00;;;;2082613;28;928;-63
2021/08/15 06:15:57;;;;;;;;;;;;;25.10;101472.00;;;;2074523;28;1973;-63
2021/08/15 06:16:58;;;;;;;;;;;;;25.30;101464.00;;;;2074447;28;768;-62
2021/08/15 06:17:58;;;;;;;;;;;;;25.40;101479.00;;;;2082786;28;711;-62
2021/08/15 06:18:58;;;;;;;;;;;;;25.50;101456.00;;;;2099086;28;1298;-63
2021/08/15 06:19:58;;;;;;;;;;;;;25.70;101448.00;;;;2091265;28;932;-63
2021/08/15 06:20:58;;;;;;;;;;;;;25.50;101458.00;;;;2082881;28;825;-63
2021/08/15 06:22:00;;;;;;;;;;;;;25.80;101446.00;;;;2083007;28;826;-65
2021/08/15 06:23:00;;;;;;;;;;;;;26.80;101443.00;;;;2087497;28;1476;-62
2021/08/15 06:24:00;;;;;;;;;;;;;26.10;101439.00;;;;2090983;28;789;-63
2021/08/15 06:25:01;;;;;;;;;;;;;25.80;101445.00;;;;2082852;28;873;-63
2021/08/15 06:26:01;;;;;;;;;;;;;26.80;101437.00;;;;2090879;28;897;-63
2021/08/15 06:27:02;;;;;;;;;;;;;27.30;101441.00;;;;2091070;28;774;-65
2021/08/15 06:28:03;;;;;;;;;;;;;26.40;101463.00;;;;2082552;28;1329;-64
2021/08/15 06:29:03;;;;;;;;;;;;;25.40;101450.00;;;;2091057;28;1280;-63
2021/08/15 06:30:03;;;;;;;;;;;;;25.80;101416.00;;;;2090789;28;951;-63
2021/08/15 06:31:03;;;;;;;;;;;;;27.10;101422.00;;;;2082756;28;979;-63
2021/08/15 06:32:04;;;;;;;;;;;;;28.40;101412.00;;;;2090306;28;943;-64
2021/08/15 06:33:05;;;;;;;;;;;;;27.20;101417.00;;;;2091632;28;994;-65
2021/08/15 06:34:05;;;;;;;;;;;;;26.60;101439.00;;;;2090968;28;801;-63
2021/08/15 06:35:06;;;;;;;;;;;;;26.60;101452.00;;;;2091028;28;1953;-65
2021/08/15 06:36:06;;;;;;;;;;;;;25.90;101450.00;;;;2090770;28;1030;-65
2021/08/15 06:37:06;;;;;;;;;;;;;25.70;101483.00;;;;2090759;28;1851;-65
2021/08/15 06:38:06;;;;;;;;;;;;;24.80;101493.00;;;;2085438;28;2148;-61
2021/08/15 06:39:07;;;;;;;;;;;;;25.00;101494.00;;;;2082678;28;1310;-62
2021/08/15 06:40:07;;;;;;;;;;;;;25.30;101438.00;;;;2082624;28;852;-64
2021/08/15 06:41:08;;;;;;;;;;;;;26.20;101457.00;;;;2083397;28;743;-63
2021/08/15 06:42:08;;;;;;;;;;;;;26.50;101425.00;;;;2098176;28;1923;-63
2021/08/15 06:43:09;;;;;;;;;;;;;26.40;101476.00;;;;2092697;28;1579;-65
2021/08/15 06:44:09;;;;;;;;;;;;;26.60;101450.00;;;;2098767;28;1653;-63
2021/08/15 06:45:10;;;;;;;;;;;;;27.50;101474.00;;;;2107337;28;1779;-63
2021/08/15 06:46:10;;;;;;;;;;;;;25.30;101465.00;;;;2090509;28;1597;-62
2021/08/15 06:47:10;;;;;;;;;;;;;26.40;101440.00;;;;2082458;28;1569;-63
2021/08/15 06:48:11;;;;;;;;;;;;;28.10;101440.00;;;;2090811;28;793;-62
2021/08/15 06:49:11;;;;;;;;;;;;;28.10;101429.00;;;;2091388;28;1199;-63
2021/08/15 06:50:11;;;;;;;;;;;;;28.00;101414.00;;;;2091463;28;804;-63
2021/08/15 06:51:12;;;;;;;;;;;;;28.90;101418.00;;;;2091629;28;912;-64
2021/08/15 06:52:12;;;;;;;;;;;;;28.20;101442.00;;;;2089446;28;832;-64
2021/08/15 06:53:12;;;;;;;;;;;;;27.20;101430.00;;;;2081481;28;717;-64
2021/08/15 06:54:12;;;;;;;;;;;;;26.30;101438.00;;;;2090739;28;1030;-63
2021/08/15 06:55:13;;;;;;;;;;;;;26.80;101438.00;;;;2089860;28;1909;-64